sensor_id;sensor_type;location;lat;lon;timestamp;P1;durP1;ratioP1;P2;durP2;ratioP2
44204;SDS011;30163;42.698;23.344;2023-09-19T00:02:12;7.97;;;4.78;;
44204;SDS011;30163;42.698;23.344;2023-09-19T00:04:37;12.23;;;4.88;;
44204;SDS011;30163;42.698;23.344;2023-09-19T00:07:05;10.68;;;5.50;;
44204;SDS011;30163;42.698;23.344;2023-09-19T00:09:30;7.25;;;5.28;;
44204;SDS011;30163;42.698;23.344;2023-09-19T00:12:02;6.90;;;4.72;;
44204;SDS011;30163;42.698;23.344;2023-09-19T00:14:28;7.20;;;4.80;;
44204;SDS011;30163;42.698;23.344;2023-09-19T00:16:53;8.45;;;4.80;;
44204;SDS011;30163;42.698;23.344;2023-09-19T00:19:19;8.07;;;4.60;;
44204;SDS011;30163;42.698;23.344;2023-09-19T00:21:45;13.18;;;5.40;;
44204;SDS011;30163;42.698;23.344;2023-09-19T00:24:12;7.07;;;4.50;;
44204;SDS011;30163;42.698;23.344;2023-09-19T00:26:39;9.32;;;5.28;;
44204;SDS011;30163;42.698;23.344;2023-09-19T00:29:04;13.18;;;5.22;;
44204;SDS011;30163;42.698;23.344;2023-09-19T00:31:33;7.47;;;4.93;;
44204;SDS011;30163;42.698;23.344;2023-09-19T00:33:59;7.93;;;5.13;;
44204;SDS011;30163;42.698;23.344;2023-09-19T00:36:34;13.60;;;4.85;;
44204;SDS011;30163;42.698;23.344;2023-09-19T00:39:00;7.65;;;4.82;;
44204;SDS011;30163;42.698;23.344;2023-09-19T00:41:26;11.90;;;5.07;;
44204;SDS011;30163;42.698;23.344;2023-09-19T00:43:52;10.88;;;5.05;;
44204;SDS011;30163;42.698;23.344;2023-09-19T00:46:17;10.85;;;4.80;;
44204;SDS011;30163;42.698;23.344;2023-09-19T00:48:43;8.40;;;5.80;;
44204;SDS011;30163;42.698;23.344;2023-09-19T00:51:08;10.85;;;6.20;;
44204;SDS011;30163;42.698;23.344;2023-09-19T00:53:34;11.93;;;6.13;;
44204;SDS011;30163;42.698;23.344;2023-09-19T00:56:00;7.97;;;5.05;;
44204;SDS011;30163;42.698;23.344;2023-09-19T00:58:25;10.57;;;5.72;;
44204;SDS011;30163;42.698;23.344;2023-09-19T01:00:51;12.38;;;5.28;;
44204;SDS011;30163;42.698;23.344;2023-09-19T01:03:18;8.68;;;5.60;;
44204;SDS011;30163;42.698;23.344;2023-09-19T01:05:43;7.80;;;4.78;;
44204;SDS011;30163;42.698;23.344;2023-09-19T01:08:09;10.32;;;5.63;;
44204;SDS011;30163;42.698;23.344;2023-09-19T01:10:37;7.90;;;5.60;;
44204;SDS011;30163;42.698;23.344;2023-09-19T01:13:22;8.13;;;5.32;;
44204;SDS011;30163;42.698;23.344;2023-09-19T01:15:59;11.48;;;5.70;;
44204;SDS011;30163;42.698;23.344;2023-09-19T01:18:52;10.02;;;5.95;;
44204;SDS011;30163;42.698;23.344;2023-09-19T01:30:13;12.77;;;6.55;;
44204;SDS011;30163;42.698;23.344;2023-09-19T01:32:40;13.88;;;6.88;;
44204;SDS011;30163;42.698;23.344;2023-09-19T01:35:06;12.13;;;6.85;;
44204;SDS011;30163;42.698;23.344;2023-09-19T01:37:37;9.35;;;5.45;;
44204;SDS011;30163;42.698;23.344;2023-09-19T01:40:07;11.35;;;6.13;;
44204;SDS011;30163;42.698;23.344;2023-09-19T01:42:58;13.02;;;6.85;;
44204;SDS011;30163;42.698;23.344;2023-09-19T01:51:02;16.90;;;6.47;;
44204;SDS011;30163;42.698;23.344;2023-09-19T01:56:05;12.77;;;7.07;;
44204;SDS011;30163;42.698;23.344;2023-09-19T01:58:39;15.70;;;7.43;;
44204;SDS011;30163;42.698;23.344;2023-09-19T02:01:11;10.73;;;6.93;;
44204;SDS011;30163;42.698;23.344;2023-09-19T02:03:38;12.80;;;7.13;;
44204;SDS011;30163;42.698;23.344;2023-09-19T02:06:04;12.98;;;7.38;;
44204;SDS011;30163;42.698;23.344;2023-09-19T02:08:30;9.98;;;6.57;;
44204;SDS011;30163;42.698;23.344;2023-09-19T02:11:00;11.85;;;7.38;;
44204;SDS011;30163;42.698;23.344;2023-09-19T02:13:25;13.77;;;6.65;;
44204;SDS011;30163;42.698;23.344;2023-09-19T02:15:52;11.10;;;6.75;;
44204;SDS011;30163;42.698;23.344;2023-09-19T02:18:18;14.95;;;8.20;;
44204;SDS011;30163;42.698;23.344;2023-09-19T02:20:44;13.35;;;6.40;;
44204;SDS011;30163;42.698;23.344;2023-09-19T02:23:11;15.02;;;7.45;;
44204;SDS011;30163;42.698;23.344;2023-09-19T02:25:37;11.98;;;6.95;;
44204;SDS011;30163;42.698;23.344;2023-09-19T02:28:05;10.68;;;6.75;;
44204;SDS011;30163;42.698;23.344;2023-09-19T02:30:31;11.65;;;6.80;;
44204;SDS011;30163;42.698;23.344;2023-09-19T02:32:57;14.48;;;6.75;;
44204;SDS011;30163;42.698;23.344;2023-09-19T02:35:22;14.75;;;7.15;;
44204;SDS011;30163;42.698;23.344;2023-09-19T02:37:48;11.18;;;6.90;;
44204;SDS011;30163;42.698;23.344;2023-09-19T02:40:13;13.82;;;7.60;;
44204;SDS011;30163;42.698;23.344;2023-09-19T02:42:48;12.95;;;7.45;;
44204;SDS011;30163;42.698;23.344;2023-09-19T02:45:17;13.80;;;7.10;;
44204;SDS011;30163;42.698;23.344;2023-09-19T02:47:46;13.98;;;7.80;;
44204;SDS011;30163;42.698;23.344;2023-09-19T02:50:12;14.75;;;6.82;;
44204;SDS011;30163;42.698;23.344;2023-09-19T02:52:38;13.95;;;7.30;;
44204;SDS011;30163;42.698;23.344;2023-09-19T02:55:08;16.65;;;7.07;;
44204;SDS011;30163;42.698;23.344;2023-09-19T02:57:34;14.40;;;7.07;;
44204;SDS011;30163;42.698;23.344;2023-09-19T03:00:01;12.60;;;6.82;;
44204;SDS011;30163;42.698;23.344;2023-09-19T03:02:32;11.57;;;7.10;;
44204;SDS011;30163;42.698;23.344;2023-09-19T03:04:59;16.90;;;7.30;;
44204;SDS011;30163;42.698;23.344;2023-09-19T03:07:25;12.57;;;7.43;;
44204;SDS011;30163;42.698;23.344;2023-09-19T03:09:50;13.60;;;7.35;;
44204;SDS011;30163;42.698;23.344;2023-09-19T03:12:17;14.90;;;8.07;;
44204;SDS011;30163;42.698;23.344;2023-09-19T03:14:43;15.98;;;8.50;;
44204;SDS011;30163;42.698;23.344;2023-09-19T03:17:09;18.15;;;8.50;;
44204;SDS011;30163;42.698;23.344;2023-09-19T03:19:34;16.73;;;8.15;;
44204;SDS011;30163;42.698;23.344;2023-09-19T03:21:59;12.20;;;7.38;;
44204;SDS011;30163;42.698;23.344;2023-09-19T03:24:25;14.32;;;8.25;;
44204;SDS011;30163;42.698;23.344;2023-09-19T03:26:51;16.35;;;8.38;;
44204;SDS011;30163;42.698;23.344;2023-09-19T03:29:17;14.35;;;7.28;;
44204;SDS011;30163;42.698;23.344;2023-09-19T03:31:43;12.85;;;7.57;;
44204;SDS011;30163;42.698;23.344;2023-09-19T03:34:08;15.27;;;7.65;;
44204;SDS011;30163;42.698;23.344;2023-09-19T03:36:34;13.65;;;7.50;;
44204;SDS011;30163;42.698;23.344;2023-09-19T03:38:59;10.35;;;7.05;;
44204;SDS011;30163;42.698;23.344;2023-09-19T03:41:25;10.88;;;7.18;;
44204;SDS011;30163;42.698;23.344;2023-09-19T03:43:50;10.57;;;6.57;;
44204;SDS011;30163;42.698;23.344;2023-09-19T03:46:16;20.77;;;8.40;;
44204;SDS011;30163;42.698;23.344;2023-09-19T03:48:41;10.35;;;6.53;;
44204;SDS011;30163;42.698;23.344;2023-09-19T03:51:07;12.25;;;7.85;;
44204;SDS011;30163;42.698;23.344;2023-09-19T03:53:33;12.70;;;7.20;;
44204;SDS011;30163;42.698;23.344;2023-09-19T03:55:58;12.40;;;7.05;;
44204;SDS011;30163;42.698;23.344;2023-09-19T03:58:25;10.23;;;7.00;;
44204;SDS011;30163;42.698;23.344;2023-09-19T04:00:50;11.98;;;6.90;;
44204;SDS011;30163;42.698;23.344;2023-09-19T04:03:16;13.93;;;7.75;;
44204;SDS011;30163;42.698;23.344;2023-09-19T04:05:46;15.30;;;7.40;;
44204;SDS011;30163;42.698;23.344;2023-09-19T04:08:12;16.08;;;7.22;;
44204;SDS011;30163;42.698;23.344;2023-09-19T04:10:41;13.32;;;7.35;;
44204;SDS011;30163;42.698;23.344;2023-09-19T04:13:07;11.57;;;7.18;;
44204;SDS011;30163;42.698;23.344;2023-09-19T04:15:32;13.95;;;7.93;;
44204;SDS011;30163;42.698;23.344;2023-09-19T04:17:58;15.00;;;6.88;;
44204;SDS011;30163;42.698;23.344;2023-09-19T04:20:23;11.75;;;7.28;;
44204;SDS011;30163;42.698;23.344;2023-09-19T04:22:49;10.98;;;6.65;;
44204;SDS011;30163;42.698;23.344;2023-09-19T04:25:14;12.45;;;7.60;;
44204;SDS011;30163;42.698;23.344;2023-09-19T04:27:40;13.48;;;7.65;;
44204;SDS011;30163;42.698;23.344;2023-09-19T04:30:07;12.95;;;7.93;;
44204;SDS011;30163;42.698;23.344;2023-09-19T04:32:40;13.65;;;8.43;;
44204;SDS011;30163;42.698;23.344;2023-09-19T04:35:06;13.18;;;7.82;;
44204;SDS011;30163;42.698;23.344;2023-09-19T04:37:33;20.92;;;7.50;;
44204;SDS011;30163;42.698;23.344;2023-09-19T04:40:03;20.92;;;7.45;;
44204;SDS011;30163;42.698;23.344;2023-09-19T04:42:31;12.05;;;7.35;;
44204;SDS011;30163;42.698;23.344;2023-09-19T04:44:56;12.30;;;7.57;;
44204;SDS011;30163;42.698;23.344;2023-09-19T04:47:22;14.98;;;7.18;;
44204;SDS011;30163;42.698;23.344;2023-09-19T04:49:47;12.18;;;6.82;;
44204;SDS011;30163;42.698;23.344;2023-09-19T04:52:13;12.98;;;6.55;;
44204;SDS011;30163;42.698;23.344;2023-09-19T04:54:40;13.13;;;7.10;;
44204;SDS011;30163;42.698;23.344;2023-09-19T04:57:06;15.52;;;7.18;;
44204;SDS011;30163;42.698;23.344;2023-09-19T04:59:32;15.48;;;7.82;;
44204;SDS011;30163;42.698;23.344;2023-09-19T05:01:58;13.38;;;7.72;;
44204;SDS011;30163;42.698;23.344;2023-09-19T05:04:23;16.58;;;7.40;;
44204;SDS011;30163;42.698;23.344;2023-09-19T05:06:49;13.48;;;6.25;;
44204;SDS011;30163;42.698;23.344;2023-09-19T05:09:14;9.75;;;6.07;;
44204;SDS011;30163;42.698;23.344;2023-09-19T05:11:40;12.52;;;6.05;;
44204;SDS011;30163;42.698;23.344;2023-09-19T05:14:06;14.60;;;6.72;;
44204;SDS011;30163;42.698;23.344;2023-09-19T05:16:31;16.08;;;7.25;;
44204;SDS011;30163;42.698;23.344;2023-09-19T05:18:57;14.40;;;6.97;;
44204;SDS011;30163;42.698;23.344;2023-09-19T05:21:25;13.02;;;6.35;;
44204;SDS011;30163;42.698;23.344;2023-09-19T05:23:53;10.93;;;6.30;;
44204;SDS011;30163;42.698;23.344;2023-09-19T05:26:19;13.65;;;6.10;;
44204;SDS011;30163;42.698;23.344;2023-09-19T05:28:44;11.60;;;6.65;;
44204;SDS011;30163;42.698;23.344;2023-09-19T05:31:10;11.05;;;5.25;;
44204;SDS011;30163;42.698;23.344;2023-09-19T05:33:35;7.97;;;5.28;;
44204;SDS011;30163;42.698;23.344;2023-09-19T05:36:00;11.05;;;5.53;;
44204;SDS011;30163;42.698;23.344;2023-09-19T05:38:26;6.88;;;4.45;;
44204;SDS011;30163;42.698;23.344;2023-09-19T05:40:52;11.10;;;5.28;;
44204;SDS011;30163;42.698;23.344;2023-09-19T05:43:17;8.90;;;4.40;;
44204;SDS011;30163;42.698;23.344;2023-09-19T05:45:44;8.75;;;4.63;;
44204;SDS011;30163;42.698;23.344;2023-09-19T05:48:13;9.57;;;4.28;;
44204;SDS011;30163;42.698;23.344;2023-09-19T05:50:40;7.60;;;4.97;;
44204;SDS011;30163;42.698;23.344;2023-09-19T05:53:06;7.93;;;4.15;;
44204;SDS011;30163;42.698;23.344;2023-09-19T05:55:32;15.25;;;4.18;;
44204;SDS011;30163;42.698;23.344;2023-09-19T05:57:58;10.70;;;4.93;;
44204;SDS011;30163;42.698;23.344;2023-09-19T06:00:24;6.38;;;4.55;;
44204;SDS011;30163;42.698;23.344;2023-09-19T06:02:54;7.05;;;4.47;;
44204;SDS011;30163;42.698;23.344;2023-09-19T06:05:22;8.43;;;4.75;;
44204;SDS011;30163;42.698;23.344;2023-09-19T06:07:48;8.52;;;4.28;;
44204;SDS011;30163;42.698;23.344;2023-09-19T06:10:13;5.75;;;4.18;;
44204;SDS011;30163;42.698;23.344;2023-09-19T06:12:40;9.35;;;4.22;;
44204;SDS011;30163;42.698;23.344;2023-09-19T06:15:08;12.98;;;3.95;;
44204;SDS011;30163;42.698;23.344;2023-09-19T06:17:37;5.38;;;3.60;;
44204;SDS011;30163;42.698;23.344;2023-09-19T06:20:05;6.35;;;4.22;;
44204;SDS011;30163;42.698;23.344;2023-09-19T06:22:38;14.73;;;4.72;;
44204;SDS011;30163;42.698;23.344;2023-09-19T06:25:03;8.10;;;5.03;;
44204;SDS011;30163;42.698;23.344;2023-09-19T06:27:29;8.52;;;4.78;;
44204;SDS011;30163;42.698;23.344;2023-09-19T06:29:54;9.10;;;4.50;;
44204;SDS011;30163;42.698;23.344;2023-09-19T06:32:26;8.77;;;4.13;;
44204;SDS011;30163;42.698;23.344;2023-09-19T06:34:52;5.93;;;4.25;;
44204;SDS011;30163;42.698;23.344;2023-09-19T06:37:19;12.90;;;4.13;;
44204;SDS011;30163;42.698;23.344;2023-09-19T06:39:46;7.22;;;4.10;;
44204;SDS011;30163;42.698;23.344;2023-09-19T06:42:13;9.85;;;4.32;;
44204;SDS011;30163;42.698;23.344;2023-09-19T06:44:38;8.13;;;3.72;;
44204;SDS011;30163;42.698;23.344;2023-09-19T06:47:04;7.20;;;4.25;;
44204;SDS011;30163;42.698;23.344;2023-09-19T06:49:30;6.25;;;3.95;;
44204;SDS011;30163;42.698;23.344;2023-09-19T06:51:55;5.05;;;3.92;;
44204;SDS011;30163;42.698;23.344;2023-09-19T06:54:22;5.78;;;3.50;;
44204;SDS011;30163;42.698;23.344;2023-09-19T06:56:47;6.38;;;4.10;;
44204;SDS011;30163;42.698;23.344;2023-09-19T06:59:13;10.32;;;3.60;;
44204;SDS011;30163;42.698;23.344;2023-09-19T07:01:39;5.82;;;3.90;;
44204;SDS011;30163;42.698;23.344;2023-09-19T07:04:06;10.48;;;4.00;;
44204;SDS011;30163;42.698;23.344;2023-09-19T07:06:31;8.10;;;3.95;;
44204;SDS011;30163;42.698;23.344;2023-09-19T07:08:57;7.10;;;3.25;;
44204;SDS011;30163;42.698;23.344;2023-09-19T07:11:22;5.68;;;3.75;;
44204;SDS011;30163;42.698;23.344;2023-09-19T07:13:48;9.10;;;4.43;;
44204;SDS011;30163;42.698;23.344;2023-09-19T07:16:14;7.22;;;3.92;;
44204;SDS011;30163;42.698;23.344;2023-09-19T07:18:52;5.75;;;3.30;;
44204;SDS011;30163;42.698;23.344;2023-09-19T07:21:18;8.48;;;3.53;;
44204;SDS011;30163;42.698;23.344;2023-09-19T07:23:43;7.82;;;3.65;;
44204;SDS011;30163;42.698;23.344;2023-09-19T07:26:09;7.43;;;4.28;;
44204;SDS011;30163;42.698;23.344;2023-09-19T07:28:34;8.27;;;3.83;;
44204;SDS011;30163;42.698;23.344;2023-09-19T07:31:02;8.98;;;4.95;;
44204;SDS011;30163;42.698;23.344;2023-09-19T07:33:28;6.95;;;3.83;;
44204;SDS011;30163;42.698;23.344;2023-09-19T07:35:54;8.02;;;4.55;;
44204;SDS011;30163;42.698;23.344;2023-09-19T07:38:20;6.35;;;4.45;;
44204;SDS011;30163;42.698;23.344;2023-09-19T07:40:45;10.27;;;4.25;;
44204;SDS011;30163;42.698;23.344;2023-09-19T07:43:11;6.97;;;4.07;;
44204;SDS011;30163;42.698;23.344;2023-09-19T07:45:36;7.00;;;3.88;;
44204;SDS011;30163;42.698;23.344;2023-09-19T07:48:02;11.40;;;4.13;;
44204;SDS011;30163;42.698;23.344;2023-09-19T07:50:29;9.65;;;4.82;;
44204;SDS011;30163;42.698;23.344;2023-09-19T07:52:55;8.90;;;4.43;;
44204;SDS011;30163;42.698;23.344;2023-09-19T07:55:21;8.57;;;3.83;;
44204;SDS011;30163;42.698;23.344;2023-09-19T07:57:51;7.53;;;3.88;;
44204;SDS011;30163;42.698;23.344;2023-09-19T08:00:17;7.68;;;4.53;;
44204;SDS011;30163;42.698;23.344;2023-09-19T08:02:43;5.65;;;3.95;;
44204;SDS011;30163;42.698;23.344;2023-09-19T08:05:09;9.05;;;4.13;;
44204;SDS011;30163;42.698;23.344;2023-09-19T08:07:35;7.95;;;3.63;;
44204;SDS011;30163;42.698;23.344;2023-09-19T08:10:02;10.00;;;4.47;;
44204;SDS011;30163;42.698;23.344;2023-09-19T08:12:28;10.85;;;6.00;;
44204;SDS011;30163;42.698;23.344;2023-09-19T08:14:55;6.80;;;4.47;;
44204;SDS011;30163;42.698;23.344;2023-09-19T08:17:20;5.18;;;3.83;;
44204;SDS011;30163;42.698;23.344;2023-09-19T08:19:48;11.65;;;3.40;;
44204;SDS011;30163;42.698;23.344;2023-09-19T08:22:14;6.15;;;4.43;;
44204;SDS011;30163;42.698;23.344;2023-09-19T08:24:42;10.13;;;4.22;;
44204;SDS011;30163;42.698;23.344;2023-09-19T08:27:08;5.80;;;3.78;;
44204;SDS011;30163;42.698;23.344;2023-09-19T08:29:35;5.88;;;3.65;;
44204;SDS011;30163;42.698;23.344;2023-09-19T08:32:00;9.32;;;4.13;;
44204;SDS011;30163;42.698;23.344;2023-09-19T08:34:26;6.30;;;3.95;;
44204;SDS011;30163;42.698;23.344;2023-09-19T08:36:52;5.45;;;3.92;;
44204;SDS011;30163;42.698;23.344;2023-09-19T08:39:21;8.07;;;4.50;;
44204;SDS011;30163;42.698;23.344;2023-09-19T08:41:47;6.53;;;3.72;;
44204;SDS011;30163;42.698;23.344;2023-09-19T08:44:12;4.43;;;3.35;;
44204;SDS011;30163;42.698;23.344;2023-09-19T08:46:38;8.18;;;3.97;;
44204;SDS011;30163;42.698;23.344;2023-09-19T08:49:32;6.03;;;3.70;;
44204;SDS011;30163;42.698;23.344;2023-09-19T08:52:16;7.90;;;4.35;;
44204;SDS011;30163;42.698;23.344;2023-09-19T08:54:46;20.70;;;10.18;;
44204;SDS011;30163;42.698;23.344;2023-09-19T08:57:12;5.78;;;3.97;;
44204;SDS011;30163;42.698;23.344;2023-09-19T08:59:46;6.63;;;4.13;;
44204;SDS011;30163;42.698;23.344;2023-09-19T09:02:12;6.40;;;4.07;;
44204;SDS011;30163;42.698;23.344;2023-09-19T09:04:40;7.57;;;4.13;;
44204;SDS011;30163;42.698;23.344;2023-09-19T09:07:10;6.10;;;3.75;;
44204;SDS011;30163;42.698;23.344;2023-09-19T09:09:39;14.00;;;4.25;;
44204;SDS011;30163;42.698;23.344;2023-09-19T09:12:12;7.88;;;4.13;;
44204;SDS011;30163;42.698;23.344;2023-09-19T09:14:45;6.55;;;3.88;;
44204;SDS011;30163;42.698;23.344;2023-09-19T09:17:14;7.80;;;3.95;;
44204;SDS011;30163;42.698;23.344;2023-09-19T09:19:41;7.63;;;4.53;;
44204;SDS011;30163;42.698;23.344;2023-09-19T09:22:11;10.40;;;4.65;;
44204;SDS011;30163;42.698;23.344;2023-09-19T09:24:37;7.55;;;3.80;;
44204;SDS011;30163;42.698;23.344;2023-09-19T09:27:05;7.25;;;4.70;;
44204;SDS011;30163;42.698;23.344;2023-09-19T09:29:48;9.02;;;4.20;;
44204;SDS011;30163;42.698;23.344;2023-09-19T09:32:26;6.13;;;3.47;;
44204;SDS011;30163;42.698;23.344;2023-09-19T09:34:56;8.90;;;4.00;;
44204;SDS011;30163;42.698;23.344;2023-09-19T09:37:23;5.97;;;3.95;;
44204;SDS011;30163;42.698;23.344;2023-09-19T09:39:50;11.70;;;3.95;;
44204;SDS011;30163;42.698;23.344;2023-09-19T09:42:34;10.50;;;4.20;;
44204;SDS011;30163;42.698;23.344;2023-09-19T09:45:33;8.63;;;3.63;;
44204;SDS011;30163;42.698;23.344;2023-09-19T09:47:58;7.05;;;3.88;;
44204;SDS011;30163;42.698;23.344;2023-09-19T09:50:33;7.38;;;4.32;;
44204;SDS011;30163;42.698;23.344;2023-09-19T09:53:21;6.82;;;4.43;;
44204;SDS011;30163;42.698;23.344;2023-09-19T09:55:57;6.55;;;3.30;;
44204;SDS011;30163;42.698;23.344;2023-09-19T09:58:22;9.13;;;5.00;;
44204;SDS011;30163;42.698;23.344;2023-09-19T10:00:54;10.67;;;5.03;;
44204;SDS011;30163;42.698;23.344;2023-09-19T10:03:30;8.70;;;4.35;;
44204;SDS011;30163;42.698;23.344;2023-09-19T10:06:08;6.60;;;4.10;;
44204;SDS011;30163;42.698;23.344;2023-09-19T10:09:09;5.75;;;3.47;;
44204;SDS011;30163;42.698;23.344;2023-09-19T10:11:44;7.07;;;4.00;;
44204;SDS011;30163;42.698;23.344;2023-09-19T10:14:13;9.18;;;4.32;;
44204;SDS011;30163;42.698;23.344;2023-09-19T10:16:45;8.02;;;3.92;;
44204;SDS011;30163;42.698;23.344;2023-09-19T10:19:14;15.85;;;4.18;;
44204;SDS011;30163;42.698;23.344;2023-09-19T10:21:41;7.65;;;4.68;;
44204;SDS011;30163;42.698;23.344;2023-09-19T10:24:08;9.52;;;4.22;;
44204;SDS011;30163;42.698;23.344;2023-09-19T10:26:34;6.88;;;4.03;;
44204;SDS011;30163;42.698;23.344;2023-09-19T10:29:01;5.50;;;3.40;;
44204;SDS011;30163;42.698;23.344;2023-09-19T10:31:28;6.63;;;4.22;;
44204;SDS011;30163;42.698;23.344;2023-09-19T10:33:55;4.68;;;3.28;;
44204;SDS011;30163;42.698;23.344;2023-09-19T10:36:22;12.15;;;4.40;;
44204;SDS011;30163;42.698;23.344;2023-09-19T10:38:50;7.32;;;3.83;;
44204;SDS011;30163;42.698;23.344;2023-09-19T10:41:20;5.90;;;4.20;;
44204;SDS011;30163;42.698;23.344;2023-09-19T10:43:46;7.00;;;3.88;;
44204;SDS011;30163;42.698;23.344;2023-09-19T10:46:13;12.45;;;3.85;;
44204;SDS011;30163;42.698;23.344;2023-09-19T10:48:39;8.88;;;3.88;;
44204;SDS011;30163;42.698;23.344;2023-09-19T10:51:15;7.05;;;3.58;;
44204;SDS011;30163;42.698;23.344;2023-09-19T10:53:51;7.90;;;4.30;;
44204;SDS011;30163;42.698;23.344;2023-09-19T10:56:19;10.32;;;3.72;;
44204;SDS011;30163;42.698;23.344;2023-09-19T10:58:46;9.57;;;4.13;;
44204;SDS011;30163;42.698;23.344;2023-09-19T11:01:13;5.47;;;3.88;;
44204;SDS011;30163;42.698;23.344;2023-09-19T11:03:39;9.20;;;4.07;;
44204;SDS011;30163;42.698;23.344;2023-09-19T11:06:12;8.73;;;4.15;;
44204;SDS011;30163;42.698;23.344;2023-09-19T11:08:52;5.18;;;3.45;;
44204;SDS011;30163;42.698;23.344;2023-09-19T11:30:30;14.18;;;4.18;;
44204;SDS011;30163;42.698;23.344;2023-09-19T11:36:29;5.75;;;3.95;;
44204;SDS011;30163;42.698;23.344;2023-09-19T11:43:47;18.88;;;4.07;;
44204;SDS011;30163;42.698;23.344;2023-09-19T11:46:13;6.72;;;4.00;;
44204;SDS011;30163;42.698;23.344;2023-09-19T11:48:41;11.90;;;4.35;;
44204;SDS011;30163;42.698;23.344;2023-09-19T11:51:19;10.95;;;3.95;;
44204;SDS011;30163;42.698;23.344;2023-09-19T11:53:58;6.03;;;3.67;;
44204;SDS011;30163;42.698;23.344;2023-09-19T11:56:26;6.43;;;3.75;;
44204;SDS011;30163;42.698;23.344;2023-09-19T11:58:56;9.77;;;4.43;;
44204;SDS011;30163;42.698;23.344;2023-09-19T12:03:55;6.28;;;4.38;;
44204;SDS011;30163;42.698;23.344;2023-09-19T12:06:23;10.35;;;4.00;;
44204;SDS011;30163;42.698;23.344;2023-09-19T12:08:49;13.32;;;3.97;;
44204;SDS011;30163;42.698;23.344;2023-09-19T12:11:16;5.90;;;3.63;;
44204;SDS011;30163;42.698;23.344;2023-09-19T12:13:42;13.57;;;4.47;;
44204;SDS011;30163;42.698;23.344;2023-09-19T12:16:16;6.55;;;4.20;;
44204;SDS011;30163;42.698;23.344;2023-09-19T12:18:45;6.55;;;4.03;;
44204;SDS011;30163;42.698;23.344;2023-09-19T12:21:22;7.30;;;4.78;;
44204;SDS011;30163;42.698;23.344;2023-09-19T12:23:58;7.57;;;4.00;;
44204;SDS011;30163;42.698;23.344;2023-09-19T12:26:25;7.40;;;4.47;;
44204;SDS011;30163;42.698;23.344;2023-09-19T12:28:54;10.55;;;4.35;;
44204;SDS011;30163;42.698;23.344;2023-09-19T12:31:20;11.82;;;7.43;;
44204;SDS011;30163;42.698;23.344;2023-09-19T12:33:45;6.50;;;3.90;;
44204;SDS011;30163;42.698;23.344;2023-09-19T12:36:19;6.40;;;4.35;;
44204;SDS011;30163;42.698;23.344;2023-09-19T12:38:50;6.90;;;4.10;;
44204;SDS011;30163;42.698;23.344;2023-09-19T12:41:16;15.57;;;5.05;;
44204;SDS011;30163;42.698;23.344;2023-09-19T12:43:42;6.07;;;4.45;;
44204;SDS011;30163;42.698;23.344;2023-09-19T12:46:08;9.25;;;4.57;;
44204;SDS011;30163;42.698;23.344;2023-09-19T12:48:33;5.80;;;3.90;;
44204;SDS011;30163;42.698;23.344;2023-09-19T12:51:03;8.60;;;3.97;;
44204;SDS011;30163;42.698;23.344;2023-09-19T12:56:05;11.98;;;3.90;;
44204;SDS011;30163;42.698;23.344;2023-09-19T12:58:33;11.85;;;4.38;;
44204;SDS011;30163;42.698;23.344;2023-09-19T13:01:00;9.82;;;5.03;;
44204;SDS011;30163;42.698;23.344;2023-09-19T13:03:26;6.38;;;4.15;;
44204;SDS011;30163;42.698;23.344;2023-09-19T13:06:01;5.60;;;3.92;;
44204;SDS011;30163;42.698;23.344;2023-09-19T13:08:38;10.63;;;3.72;;
44204;SDS011;30163;42.698;23.344;2023-09-19T13:11:10;5.93;;;4.10;;
44204;SDS011;30163;42.698;23.344;2023-09-19T13:13:45;8.80;;;4.77;;
44204;SDS011;30163;42.698;23.344;2023-09-19T13:16:53;9.48;;;4.63;;
44204;SDS011;30163;42.698;23.344;2023-09-19T13:22:04;8.85;;;4.45;;
44204;SDS011;30163;42.698;23.344;2023-09-19T13:24:33;10.60;;;4.57;;
44204;SDS011;30163;42.698;23.344;2023-09-19T13:27:01;5.40;;;3.85;;
44204;SDS011;30163;42.698;23.344;2023-09-19T13:29:28;6.32;;;4.38;;
44204;SDS011;30163;42.698;23.344;2023-09-19T13:31:54;7.03;;;4.38;;
44204;SDS011;30163;42.698;23.344;2023-09-19T13:34:19;5.30;;;3.85;;
44204;SDS011;30163;42.698;23.344;2023-09-19T13:36:46;11.40;;;5.13;;
44204;SDS011;30163;42.698;23.344;2023-09-19T13:39:13;7.07;;;4.43;;
44204;SDS011;30163;42.698;23.344;2023-09-19T13:41:49;10.02;;;4.72;;
44204;SDS011;30163;42.698;23.344;2023-09-19T13:44:14;8.85;;;4.60;;
44204;SDS011;30163;42.698;23.344;2023-09-19T13:46:41;10.75;;;4.63;;
44204;SDS011;30163;42.698;23.344;2023-09-19T13:49:10;10.93;;;5.57;;
44204;SDS011;30163;42.698;23.344;2023-09-19T13:51:36;7.25;;;4.60;;
44204;SDS011;30163;42.698;23.344;2023-09-19T13:54:02;7.13;;;4.13;;
44204;SDS011;30163;42.698;23.344;2023-09-19T13:56:27;5.93;;;4.53;;
44204;SDS011;30163;42.698;23.344;2023-09-19T13:58:53;13.30;;;5.07;;
44204;SDS011;30163;42.698;23.344;2023-09-19T14:01:19;8.48;;;4.38;;
44204;SDS011;30163;42.698;23.344;2023-09-19T14:03:45;7.63;;;4.20;;
44204;SDS011;30163;42.698;23.344;2023-09-19T14:06:15;9.82;;;4.15;;
44204;SDS011;30163;42.698;23.344;2023-09-19T14:08:41;8.98;;;4.40;;
44204;SDS011;30163;42.698;23.344;2023-09-19T14:11:07;6.95;;;4.22;;
44204;SDS011;30163;42.698;23.344;2023-09-19T14:13:35;9.32;;;4.85;;
44204;SDS011;30163;42.698;23.344;2023-09-19T14:16:04;5.97;;;4.43;;
44204;SDS011;30163;42.698;23.344;2023-09-19T14:18:30;10.40;;;4.40;;
44204;SDS011;30163;42.698;23.344;2023-09-19T14:20:56;8.57;;;4.45;;
44204;SDS011;30163;42.698;23.344;2023-09-19T14:23:22;5.90;;;4.10;;
44204;SDS011;30163;42.698;23.344;2023-09-19T14:25:48;7.90;;;4.22;;
44204;SDS011;30163;42.698;23.344;2023-09-19T14:28:13;6.93;;;4.47;;
44204;SDS011;30163;42.698;23.344;2023-09-19T14:30:39;5.75;;;4.20;;
44204;SDS011;30163;42.698;23.344;2023-09-19T14:33:04;8.88;;;4.47;;
44204;SDS011;30163;42.698;23.344;2023-09-19T14:35:31;10.88;;;4.07;;
44204;SDS011;30163;42.698;23.344;2023-09-19T14:37:56;10.02;;;4.38;;
44204;SDS011;30163;42.698;23.344;2023-09-19T14:40:22;7.07;;;4.47;;
44204;SDS011;30163;42.698;23.344;2023-09-19T14:42:47;7.80;;;5.05;;
44204;SDS011;30163;42.698;23.344;2023-09-19T14:45:13;8.18;;;4.07;;
44204;SDS011;30163;42.698;23.344;2023-09-19T14:47:43;8.13;;;4.68;;
44204;SDS011;30163;42.698;23.344;2023-09-19T14:50:08;11.32;;;4.63;;
44204;SDS011;30163;42.698;23.344;2023-09-19T14:52:35;8.30;;;4.80;;
44204;SDS011;30163;42.698;23.344;2023-09-19T14:55:01;6.25;;;4.18;;
44204;SDS011;30163;42.698;23.344;2023-09-19T14:57:27;8.65;;;4.47;;
44204;SDS011;30163;42.698;23.344;2023-09-19T14:59:52;9.73;;;4.70;;
44204;SDS011;30163;42.698;23.344;2023-09-19T15:02:18;10.85;;;5.43;;
44204;SDS011;30163;42.698;23.344;2023-09-19T15:04:44;7.90;;;5.07;;
44204;SDS011;30163;42.698;23.344;2023-09-19T15:07:11;12.25;;;6.13;;
44204;SDS011;30163;42.698;23.344;2023-09-19T15:09:37;12.07;;;5.00;;
44204;SDS011;30163;42.698;23.344;2023-09-19T15:12:03;8.50;;;5.05;;
44204;SDS011;30163;42.698;23.344;2023-09-19T15:14:28;12.07;;;5.78;;
44204;SDS011;30163;42.698;23.344;2023-09-19T15:16:57;13.82;;;4.95;;
44204;SDS011;30163;42.698;23.344;2023-09-19T15:19:22;9.00;;;4.95;;
44204;SDS011;30163;42.698;23.344;2023-09-19T15:21:48;7.78;;;5.57;;
44204;SDS011;30163;42.698;23.344;2023-09-19T15:24:13;7.97;;;5.07;;
44204;SDS011;30163;42.698;23.344;2023-09-19T15:26:39;7.57;;;4.88;;